createdAt,value
2018-07-27T00:00:44.268Z,79.21
2018-07-27T00:01:44.268Z,79.30
2018-07-27T00:02:44.271Z,79.50
2018-07-27T00:03:44.276Z,79.69
2018-07-27T00:04:44.276Z,79.21
2018-07-27T00:05:44.277Z,79.98
2018-07-27T00:06:44.279Z,79.11
2018-07-27T00:07:44.281Z,79.79
2018-07-27T00:08:44.284Z,79.46
2018-07-27T00:09:44.285Z,80.55
2018-07-27T00:10:44.287Z,80.17
2018-07-27T00:11:44.289Z,79.75
2018-07-27T00:12:44.292Z,79.65
2018-07-27T00:13:44.293Z,80.17
2018-07-27T00:14:44.346Z,79.69
2018-07-27T00:15:44.303Z,80.27
2018-07-27T00:16:44.299Z,80.46
2018-07-27T00:17:44.301Z,80.07
2018-07-27T00:18:44.303Z,80.61
2018-07-27T00:19:44.306Z,79.75
2018-07-27T00:20:44.308Z,80.32
2018-07-27T00:21:44.310Z,80.80
2018-07-27T00:22:44.311Z,80.71
2018-07-27T00:23:44.313Z,81.19
2018-07-27T00:24:44.316Z,80.99
2018-07-27T00:25:44.320Z,81.09
2018-07-27T00:26:44.322Z,81.19
2018-07-27T00:27:44.321Z,80.80
2018-07-27T00:28:44.323Z,80.90
2018-07-27T00:29:44.325Z,81.57
2018-07-27T00:30:44.326Z,81.38
2018-07-27T06:21:44.724Z,83.86
2018-07-27T06:22:44.726Z,84.34
2018-07-27T06:23:44.764Z,84.63
2018-07-27T06:24:44.731Z,84.50
2018-07-27T06:25:44.788Z,83.48
2018-07-27T06:26:44.735Z,84.54
2018-07-27T06:27:44.738Z,83.00
2018-07-27T06:28:44.740Z,82.23
2018-07-27T06:29:44.741Z,81.65
2018-07-27T06:30:44.744Z,82.32
2018-07-27T06:31:44.750Z,82.52
2018-07-27T06:32:44.749Z,79.05
2018-07-27T06:33:44.794Z,79.82
2018-07-27T06:34:44.816Z,78.13
2018-07-27T06:35:44.756Z,77.46
2018-07-27T06:36:44.760Z,76.78
2018-07-27T06:37:44.762Z,76.98
2018-07-27T06:38:44.764Z,76.50
2018-07-27T06:39:44.768Z,76.98
2018-07-27T06:40:44.769Z,77.65
2018-07-27T06:41:44.772Z,78.71
2018-07-27T06:42:44.775Z,77.84
2018-07-27T06:43:44.777Z,78.03
2018-07-27T06:44:44.783Z,78.42
2018-07-27T06:45:44.782Z,79.03
2018-07-27T06:46:44.787Z,77.88
2018-07-27T06:47:44.792Z,79.13
2018-07-27T06:48:44.791Z,78.46
2018-07-27T06:49:44.793Z,77.40
2018-07-27T06:50:44.798Z,77.98
2018-07-27T06:51:44.799Z,77.88
2018-07-27T06:52:44.810Z,77.88
2018-07-27T06:53:44.804Z,75.32
2018-07-27T06:54:44.807Z,74.93
2018-07-27T06:55:44.874Z,74.55
2018-07-27T06:56:44.920Z,75.32
2018-07-27T06:57:44.818Z,75.32
2018-07-27T06:58:44.818Z,75.61
2018-07-27T06:59:44.822Z,74.93
2018-07-27T07:00:44.825Z,75.80
2018-07-27T07:01:44.828Z,75.99
2018-07-27T07:02:44.831Z,75.13
2018-07-27T07:03:44.834Z,76.86
2018-07-27T07:04:44.837Z,76.18
2018-07-27T07:05:44.840Z,76.13
2018-07-27T07:06:44.842Z,74.88
2018-07-27T07:07:44.846Z,73.91
2018-07-27T07:08:44.850Z,74.68
2018-07-27T07:09:44.852Z,75.45
2018-07-27T07:10:44.856Z,74.30
2018-07-27T07:11:44.859Z,73.43
2018-07-27T07:12:44.868Z,72.02
2018-07-27T07:13:44.865Z,71.79
2018-07-27T07:14:44.869Z,71.54
2018-07-27T07:15:44.872Z,71.83
2018-07-27T07:16:44.876Z,71.54
2018-07-27T07:17:44.878Z,72.21
2018-07-27T07:18:44.882Z,72.69
2018-07-27T07:19:44.890Z,73.02
2018-07-27T07:20:44.895Z,72.38
2018-07-27T07:21:44.894Z,70.58
2018-07-27T07:22:44.898Z,66.59
2018-07-27T07:23:44.906Z,64.92
2018-07-27T07:24:44.910Z,62.72
2018-07-27T07:25:45.175Z,61.69
2018-07-27T07:26:44.920Z,60.36
2018-07-27T07:27:44.926Z,60.07
2018-07-27T07:28:44.978Z,59.10
2018-07-27T07:29:44.936Z,59.78
2018-07-27T07:30:44.942Z,60.36
2018-07-27T07:31:44.949Z,60.46
2018-07-27T07:32:44.954Z,59.78
2018-07-27T07:33:44.961Z,59.88
2018-07-27T07:34:44.967Z,59.78
2018-07-27T07:35:44.974Z,59.97
2018-07-27T07:36:44.980Z,61.59
2018-07-27T07:37:44.987Z,61.88
2018-07-27T07:38:44.995Z,62.11
2018-07-27T07:39:45.002Z,64.04
2018-07-27T07:40:45.010Z,64.43
2018-07-27T07:41:45.017Z,64.04
2018-07-27T07:42:45.027Z,65.79
2018-07-27T07:43:45.093Z,63.89
2018-07-27T07:44:45.048Z,63.79
2018-07-27T07:45:45.053Z,65.08
2018-07-27T07:46:45.068Z,63.34
2018-07-27T07:47:45.071Z,62.98
2018-07-27T07:48:45.081Z,61.24
2018-07-27T07:49:45.113Z,59.69
2018-07-27T07:50:45.098Z,60.65
2018-07-27T07:51:45.108Z,60.46
2018-07-27T07:52:45.116Z,60.46
2018-07-27T07:53:45.123Z,61.43
2018-07-27T07:54:45.132Z,60.65
2018-07-27T07:55:45.219Z,60.46
2018-07-27T07:56:45.150Z,59.69
2018-07-27T07:57:45.157Z,60.33
2018-07-27T07:58:45.164Z,60.52
2018-07-27T07:59:45.173Z,61.01
2018-07-27T08:00:45.181Z,59.66
2018-07-27T08:01:45.190Z,60.43
2018-07-27T08:02:45.321Z,60.91
2018-07-27T08:03:45.203Z,61.11
2018-07-27T08:04:45.211Z,62.27
2018-07-27T08:05:45.219Z,61.30
2018-07-27T08:06:45.228Z,61.04
2018-07-27T08:07:45.239Z,61.43
2018-07-27T08:08:45.249Z,60.78
2018-07-27T08:09:45.256Z,58.51
2018-07-27T08:10:45.267Z,56.50
2018-07-27T08:11:45.278Z,54.61
2018-07-27T08:12:45.292Z,53.67
2018-07-27T08:13:45.303Z,54.86
2018-07-27T08:14:45.315Z,53.40
2018-07-27T08:15:45.327Z,52.84
2018-07-27T08:16:45.691Z,52.19
2018-07-27T08:17:45.353Z,51.73
2018-07-27T08:18:45.366Z,49.32
2018-07-27T08:19:45.380Z,49.44
2018-07-27T08:20:45.397Z,49.07
2018-07-27T08:21:45.407Z,48.32
2018-07-27T08:22:45.422Z,47.34
2018-07-27T08:23:45.438Z,49.66
2018-07-27T08:24:45.452Z,50.43
2018-07-27T08:25:45.520Z,48.80
2018-07-27T08:26:45.484Z,49.88
2018-07-27T08:27:45.498Z,48.27
2018-07-27T08:28:45.513Z,49.71
2018-07-27T08:29:45.528Z,49.49
2018-07-27T08:30:45.544Z,49.88
2018-07-27T08:31:45.560Z,50.78
2018-07-27T08:32:45.576Z,50.68
2018-07-27T08:33:45.590Z,50.26
2018-07-27T08:34:45.607Z,49.58
2018-07-27T08:35:45.623Z,49.41
2018-07-27T08:36:45.662Z,49.34
2018-07-27T08:37:45.654Z,49.24
2018-07-27T08:38:45.672Z,50.19
2018-07-27T08:39:45.720Z,50.75
2018-07-27T08:40:45.704Z,52.02
2018-07-27T08:41:45.719Z,52.02
2018-07-27T08:42:45.735Z,52.04
2018-07-27T08:43:45.752Z,52.14
2018-07-27T08:44:45.768Z,52.66
2018-07-27T08:45:45.783Z,51.90
2018-07-27T08:46:45.838Z,49.98
2018-07-27T08:47:45.819Z,48.71
2018-07-27T08:48:45.833Z,49.02
2018-07-27T08:49:45.851Z,49.71
2018-07-27T08:50:45.864Z,50.68
2018-07-27T08:51:45.881Z,46.99
2018-07-27T08:52:45.897Z,46.53
2018-07-27T08:53:45.914Z,46.36
2018-07-27T08:54:45.930Z,45.65
2018-07-27T08:55:46.043Z,45.61
2018-07-27T08:56:45.972Z,47.44
2018-07-27T08:57:45.995Z,48.22
2018-07-27T08:58:46.176Z,49.68
2018-07-27T08:59:46.014Z,47.66
2018-07-27T09:00:46.031Z,45.92
2018-07-27T09:01:46.048Z,46.53
2018-07-27T09:02:46.066Z,44.77
2018-07-27T09:03:46.089Z,44.35
2018-07-27T09:04:46.098Z,46.70
2018-07-27T09:05:46.114Z,47.19
2018-07-27T09:06:46.132Z,45.92
2018-07-27T09:07:46.152Z,45.62
2018-07-27T09:08:46.165Z,45.62
2018-07-27T09:09:46.182Z,46.41
2018-07-27T09:10:46.199Z,46.99
2018-07-27T09:11:46.216Z,46.43
2018-07-27T09:12:46.235Z,45.65
2018-07-27T09:13:46.250Z,43.91
2018-07-27T09:14:46.266Z,45.47
2018-07-27T09:15:46.284Z,45.45
2018-07-27T09:16:46.300Z,44.43
2018-07-27T09:17:46.317Z,45.21
2018-07-27T09:18:46.334Z,45.04
2018-07-27T09:19:46.485Z,45.43
2018-07-27T09:20:46.369Z,44.94
2018-07-27T09:21:46.386Z,44.45
2018-07-27T09:22:46.524Z,45.14
2018-07-27T09:23:46.419Z,46.23
2018-07-27T09:24:46.565Z,46.01
2018-07-27T09:25:46.492Z,45.82
2018-07-27T09:26:46.469Z,45.82
2018-07-27T09:27:46.486Z,46.53
2018-07-27T09:28:46.508Z,46.70
2018-07-27T09:29:46.519Z,44.84
2018-07-27T09:30:46.537Z,45.87
2018-07-27T09:31:46.554Z,47.36
2018-07-27T09:32:46.572Z,47.95
2018-07-27T09:33:46.586Z,49.61
2018-07-27T09:34:46.605Z,49.24
2018-07-27T09:35:46.620Z,46.92
2018-07-27T09:36:46.636Z,47.21
2018-07-27T09:37:46.653Z,47.89
2018-07-27T09:38:46.673Z,46.60
2018-07-27T09:39:46.747Z,47.90
2018-07-27T09:40:46.712Z,48.56
2018-07-27T09:41:46.718Z,49.02
2018-07-27T09:42:46.735Z,50.46
2018-07-27T09:43:46.839Z,50.58
2018-07-27T09:44:46.800Z,50.48
2018-07-27T09:45:46.837Z,51.17
2018-07-27T09:46:46.799Z,53.41
2018-07-27T09:47:46.815Z,53.44
2018-07-27T09:48:46.831Z,49.66
2018-07-27T09:49:46.868Z,48.10
2018-07-27T09:50:47.145Z,48.17
2018-07-27T09:51:46.878Z,49.22
2018-07-27T09:52:46.893Z,50.09
2018-07-27T09:53:46.914Z,50.02
2018-07-27T09:54:47.081Z,49.32
2018-07-27T09:55:47.061Z,49.93
2018-07-27T09:56:46.982Z,50.43
2018-07-27T09:57:46.978Z,48.32
2018-07-27T09:58:46.984Z,49.61
2018-07-27T09:59:47.000Z,46.89
2018-07-27T10:00:47.016Z,46.60
2018-07-27T10:01:47.031Z,47.17
2018-07-27T10:02:47.044Z,47.24
2018-07-27T10:03:47.062Z,48.51
2018-07-27T10:04:47.077Z,50.34
2018-07-27T10:05:47.133Z,50.63
2018-07-27T10:06:47.108Z,49.32
2018-07-27T10:07:47.124Z,48.95
2018-07-27T10:08:47.138Z,49.46
2018-07-27T10:09:47.152Z,49.19
2018-07-27T10:10:47.167Z,49.32
2018-07-27T10:11:47.183Z,49.24
2018-07-27T10:12:47.201Z,50.51
2018-07-27T10:13:47.231Z,45.72
2018-07-27T10:14:47.227Z,45.82
2018-07-27T10:15:47.242Z,46.60
2018-07-27T10:16:47.257Z,46.31
2018-07-27T10:17:47.272Z,46.11
2018-07-27T10:18:47.288Z,45.23
2018-07-27T10:19:47.306Z,46.70
2018-07-27T10:20:47.317Z,45.82
2018-07-27T10:21:47.331Z,45.82
2018-07-27T10:22:47.346Z,45.41
2018-07-27T10:23:47.362Z,45.78
2018-07-27T10:24:47.376Z,46.44
2018-07-27T10:25:47.439Z,47.97
2018-07-27T10:26:47.405Z,47.61
2018-07-27T10:27:47.419Z,50.56
2018-07-27T10:28:47.436Z,49.41
2018-07-27T10:29:47.452Z,48.85
2018-07-27T10:30:47.463Z,49.55
2018-07-27T10:31:47.477Z,46.65
2018-07-27T10:32:47.492Z,46.14
2018-07-27T10:33:47.506Z,47.31
2018-07-27T10:34:47.519Z,48.38
2018-07-27T10:35:47.536Z,48.70
2018-07-27T10:36:47.550Z,47.85
2018-07-27T10:37:47.565Z,46.97
2018-07-27T10:38:47.578Z,46.20
2018-07-27T10:39:47.594Z,43.76
2018-07-27T10:40:47.630Z,43.66
2018-07-27T10:41:47.622Z,44.71
2018-07-27T10:42:47.637Z,44.81
2018-07-27T10:43:47.651Z,44.10
2018-07-27T10:44:47.723Z,43.96
2018-07-27T10:45:47.680Z,44.73
2018-07-27T10:46:47.694Z,45.51
2018-07-27T10:47:47.709Z,48.16
2018-07-27T10:48:47.726Z,49.04
2018-07-27T10:49:47.737Z,49.75
2018-07-27T10:50:47.815Z,44.48
2018-07-27T10:51:47.766Z,44.38
2018-07-27T10:52:47.782Z,43.99
2018-07-27T10:53:47.900Z,48.38
2018-07-27T10:54:47.809Z,45.10
2018-07-27T10:55:47.931Z,47.16
2018-07-27T10:56:47.837Z,48.04
2018-07-27T10:57:47.851Z,46.36
2018-07-27T10:58:47.865Z,43.49
2018-07-27T10:59:47.880Z,44.43
2018-07-27T11:00:47.894Z,45.68
2018-07-27T11:01:47.910Z,46.17
2018-07-27T11:02:47.922Z,44.70
2018-07-27T11:03:47.937Z,45.48
2018-07-27T11:04:48.046Z,45.39
2018-07-27T11:05:47.963Z,46.85
2018-07-27T11:06:47.980Z,45.61
2018-07-27T11:07:47.990Z,47.19
2018-07-27T11:08:48.010Z,45.61
2018-07-27T11:09:48.112Z,45.80
2018-07-27T11:10:48.123Z,46.80
2018-07-27T11:11:48.045Z,45.92
2018-07-27T11:12:48.059Z,43.99
2018-07-27T11:13:48.072Z,43.38
2018-07-27T11:14:48.087Z,43.43
2018-07-27T11:15:48.098Z,43.14
2018-07-27T11:16:48.113Z,44.21
2018-07-27T11:17:48.130Z,46.00
2018-07-27T11:18:48.139Z,44.43
2018-07-27T11:19:48.174Z,43.36
2018-07-27T11:20:48.166Z,43.36
2018-07-27T11:21:48.178Z,43.07
2018-07-27T11:22:48.192Z,43.57
2018-07-27T11:23:48.206Z,43.38
2018-07-27T11:24:48.437Z,42.40
2018-07-27T11:25:48.352Z,42.40
2018-07-27T11:26:48.246Z,43.40
2018-07-27T11:27:48.260Z,42.91
2018-07-27T11:28:48.272Z,42.44
2018-07-27T11:29:48.285Z,45.57
2018-07-27T11:30:48.297Z,44.52
2018-07-27T11:31:48.313Z,43.24
2018-07-27T11:32:48.325Z,44.71
2018-07-27T11:33:48.376Z,40.70
2018-07-27T11:34:48.352Z,39.72
2018-07-27T11:35:48.366Z,40.95
2018-07-27T11:36:48.377Z,40.08
2018-07-27T11:37:48.394Z,41.93
2018-07-27T11:38:48.405Z,41.35
2018-07-27T11:39:48.419Z,42.22
2018-07-27T11:40:48.463Z,43.49
2018-07-27T11:41:48.599Z,43.23
2018-07-27T11:42:48.459Z,41.58
2018-07-27T11:43:48.473Z,39.62
2018-07-27T11:44:48.491Z,40.19
2018-07-27T11:45:48.499Z,41.07
2018-07-27T11:46:48.888Z,39.49
2018-07-27T11:47:48.546Z,40.17
2018-07-27T11:48:48.539Z,41.83
2018-07-27T11:49:48.553Z,39.76
2018-07-27T11:50:48.567Z,40.25
2018-07-27T11:51:48.579Z,39.84
2018-07-27T11:52:48.592Z,40.33
2018-07-27T11:53:48.604Z,41.21
2018-07-27T11:54:48.618Z,42.21
2018-07-27T11:55:48.632Z,42.52
2018-07-27T11:56:48.644Z,42.42
2018-07-27T11:57:48.657Z,40.76
2018-07-27T11:58:48.670Z,41.07
2018-07-27T11:59:48.683Z,38.61
2018-07-27T12:00:48.710Z,38.71
2018-07-27T12:01:48.750Z,39.18
2018-07-27T12:02:48.721Z,40.35
2018-07-27T12:03:48.734Z,39.45
2018-07-27T12:04:48.747Z,39.53
2018-07-27T12:05:48.759Z,41.97
2018-07-27T12:06:48.772Z,41.50
2018-07-27T12:07:48.786Z,41.33
2018-07-27T12:08:48.797Z,40.84
2018-07-27T12:09:48.809Z,42.03
2018-07-27T12:10:48.822Z,43.23
2018-07-27T12:11:48.835Z,38.84
2018-07-27T12:12:48.851Z,37.63
2018-07-27T12:13:48.920Z,38.81
2018-07-27T12:14:49.025Z,38.40
2018-07-27T12:15:48.885Z,40.37
2018-07-27T12:16:48.899Z,40.27
2018-07-27T12:17:48.994Z,39.98
2018-07-27T12:18:48.922Z,38.69
2018-07-27T12:19:48.936Z,39.47
2018-07-27T12:20:48.979Z,41.54
2018-07-27T12:21:49.174Z,39.96
2018-07-27T12:22:48.973Z,40.06
2018-07-27T12:23:48.989Z,40.74
2018-07-27T12:24:48.997Z,40.23
2018-07-27T12:25:49.009Z,40.43
2018-07-27T12:26:49.269Z,40.53
2018-07-27T12:27:49.037Z,43.38
2018-07-27T12:28:49.047Z,46.31
2018-07-27T12:29:49.060Z,45.65
2018-07-27T12:30:49.071Z,44.01
2018-07-27T12:31:49.087Z,43.62
2018-07-27T12:32:49.098Z,38.61
2018-07-27T12:33:49.110Z,39.20
2018-07-27T12:34:49.120Z,38.49
2018-07-27T12:35:49.134Z,39.08
2018-07-27T12:36:49.144Z,41.25
2018-07-27T12:37:49.181Z,40.37
2018-07-27T12:38:49.172Z,40.97
2018-07-27T12:39:49.182Z,39.62
2018-07-27T12:40:49.194Z,37.67
2018-07-27T12:41:49.205Z,37.47
2018-07-27T12:42:49.217Z,37.45
2018-07-27T12:43:49.231Z,37.65
2018-07-27T12:44:49.288Z,37.34
2018-07-27T12:45:49.266Z,42.42
2018-07-27T12:46:49.266Z,40.39
2018-07-27T12:47:49.279Z,40.50
2018-07-27T12:48:49.290Z,39.25
2018-07-27T12:49:49.301Z,38.98
2018-07-27T12:50:49.316Z,41.92
2018-07-27T12:51:49.332Z,38.20
2018-07-27T12:52:49.338Z,39.56
2018-07-27T12:53:49.409Z,36.43
2018-07-27T12:54:49.449Z,39.37
2018-07-27T12:55:49.375Z,40.35
2018-07-27T12:56:49.388Z,37.98
2018-07-27T12:57:49.399Z,37.79
2018-07-27T12:58:49.411Z,37.47
2018-07-27T12:59:49.424Z,38.73
2018-07-27T13:00:49.437Z,38.81
2018-07-27T13:01:49.474Z,38.34
2018-07-27T13:02:49.484Z,39.29
2018-07-27T13:03:49.472Z,42.25
2018-07-27T13:04:49.485Z,41.21
2018-07-27T13:05:49.495Z,40.53
2018-07-27T13:06:49.856Z,40.14
2018-07-27T13:07:49.796Z,40.45
2018-07-27T13:08:49.651Z,38.59
2018-07-27T13:09:49.767Z,39.47
2018-07-27T13:10:49.594Z,38.00
2018-07-27T13:11:49.620Z,37.88
2018-07-27T13:12:49.744Z,38.26
2018-07-27T13:13:49.591Z,37.77
2018-07-27T13:14:49.624Z,38.02
2018-07-27T13:15:49.668Z,38.12
2018-07-27T13:16:49.627Z,38.20
2018-07-27T13:17:49.794Z,39.86
2018-07-27T13:18:49.852Z,45.45
2018-07-27T13:19:49.662Z,38.73
2018-07-27T13:20:49.679Z,39.31
2018-07-27T13:21:49.725Z,39.04
2018-07-27T13:22:49.698Z,38.35
2018-07-27T13:23:49.712Z,39.82
2018-07-27T13:24:56.734Z,41.19
2018-07-27T13:25:49.789Z,39.53
2018-07-27T13:26:49.748Z,37.85
2018-07-27T13:27:49.758Z,38.42
2018-07-27T13:28:49.865Z,39.37
2018-07-27T13:29:49.783Z,40.14
2018-07-27T13:30:49.958Z,40.80
2018-07-27T13:31:49.825Z,41.89
2018-07-27T13:32:49.813Z,40.60
2018-07-27T13:33:49.823Z,41.28
2018-07-27T13:34:49.846Z,45.70
2018-07-27T13:35:49.857Z,43.36
2018-07-27T13:36:49.858Z,40.23
2018-07-27T13:37:49.868Z,40.04
2018-07-27T13:38:49.880Z,40.53
2018-07-27T13:39:49.898Z,43.38
2018-07-27T13:40:49.903Z,43.48
2018-07-27T13:41:50.204Z,43.59
2018-07-27T13:42:49.924Z,44.48
2018-07-27T13:43:49.949Z,44.01
2018-07-27T13:44:49.946Z,43.84
2018-07-27T13:45:49.955Z,39.14
2018-07-27T13:46:49.966Z,40.63
2018-07-27T13:47:49.979Z,41.99
2018-07-27T13:48:49.989Z,41.82
2018-07-27T13:49:50.001Z,38.57
2018-07-27T13:50:50.012Z,37.08
2018-07-27T13:51:50.024Z,38.92
2018-07-27T13:52:50.278Z,38.32
2018-07-27T13:53:50.045Z,39.00
2018-07-27T13:54:50.057Z,39.59
2018-07-27T13:55:50.067Z,39.29
2018-07-27T13:56:50.081Z,39.76
2018-07-27T13:57:50.089Z,40.76
2018-07-27T13:58:50.114Z,41.83
2018-07-27T13:59:50.110Z,40.48
2018-07-27T14:00:50.121Z,41.07
2018-07-27T14:01:50.387Z,40.80
2018-07-27T14:02:50.143Z,40.21
2018-07-27T14:03:50.470Z,38.45
2018-07-27T14:04:50.165Z,38.45
2018-07-27T14:05:50.177Z,37.96
2018-07-27T14:06:50.481Z,37.96
2018-07-27T14:07:50.202Z,40.70
2018-07-27T14:08:50.213Z,39.82
2018-07-27T14:09:50.225Z,36.94
2018-07-27T14:10:50.239Z,37.22
2018-07-27T14:11:50.243Z,38.20
2018-07-27T14:12:50.253Z,37.91
2018-07-27T14:13:50.264Z,40.94
2018-07-27T14:14:50.278Z,41.03
2018-07-27T14:15:50.287Z,38.30
2018-07-27T14:16:50.564Z,38.18
2018-07-27T14:17:50.307Z,38.45
2018-07-27T14:18:50.319Z,38.34
2018-07-27T14:19:50.331Z,39.41
2018-07-27T14:20:50.340Z,42.16
2018-07-27T14:21:50.397Z,43.33
2018-07-27T14:22:50.361Z,43.46
2018-07-27T14:23:50.389Z,39.84
2018-07-27T14:24:50.380Z,42.30
2018-07-27T14:25:50.390Z,39.47
2018-07-27T14:26:50.402Z,38.09
2018-07-27T14:27:50.412Z,38.77
2018-07-27T14:28:50.426Z,38.16
2018-07-27T14:29:50.432Z,39.65
2018-07-27T14:30:50.442Z,38.96
2018-07-27T14:31:50.454Z,39.04
2018-07-27T14:32:50.463Z,38.84
2018-07-27T14:33:50.474Z,37.87
2018-07-27T14:34:50.483Z,39.53
2018-07-27T14:35:50.494Z,40.11
2018-07-27T14:36:50.559Z,38.75
2018-07-27T14:37:50.513Z,39.53
2018-07-27T14:38:50.820Z,39.23
2018-07-27T14:39:50.535Z,38.24
2018-07-27T14:40:50.544Z,38.53
2018-07-27T14:41:50.704Z,38.14
2018-07-27T14:42:50.672Z,38.63
2018-07-27T14:43:50.572Z,38.92
2018-07-27T14:44:50.584Z,38.73
2018-07-27T14:45:50.591Z,38.02
2018-07-27T14:46:50.602Z,38.12
2018-07-27T14:47:50.611Z,40.37
2018-07-27T14:48:50.621Z,39.00
2018-07-27T14:49:50.631Z,38.51
2018-07-27T14:50:50.639Z,39.69
2018-07-27T14:51:50.649Z,39.70
2018-07-27T14:52:50.702Z,39.02
2018-07-27T14:53:50.955Z,41.17
2018-07-27T14:54:50.985Z,41.46
2018-07-27T14:55:50.936Z,38.82
2018-07-27T14:56:50.696Z,37.85
2018-07-27T14:57:50.705Z,37.65
2018-07-27T14:58:50.715Z,39.41
2018-07-27T14:59:51.012Z,43.12
2018-07-27T15:00:51.066Z,40.21
2018-07-27T15:01:50.741Z,39.04
2018-07-27T15:02:50.754Z,36.60
2018-07-27T15:03:50.761Z,36.39
2018-07-27T15:04:50.816Z,38.24
2018-07-27T15:05:50.780Z,40.56
2018-07-27T15:06:50.792Z,41.95
2018-07-27T15:07:50.798Z,40.88
2018-07-27T15:08:51.312Z,39.22
2018-07-27T15:09:50.816Z,39.02
2018-07-27T15:10:50.826Z,39.88
2018-07-27T15:11:50.835Z,39.69
2018-07-27T15:12:50.896Z,38.79
2018-07-27T15:13:50.851Z,38.98
2018-07-27T15:14:50.861Z,40.06
2018-07-27T15:15:50.870Z,40.13
2018-07-27T15:16:50.880Z,40.03
2018-07-27T15:17:50.887Z,40.55
2018-07-27T15:18:50.897Z,40.91
2018-07-27T15:19:50.906Z,41.40
2018-07-27T15:20:50.914Z,41.01
2018-07-27T15:21:50.926Z,41.91
2018-07-27T15:22:50.931Z,44.64
2018-07-27T15:23:50.941Z,44.15
2018-07-27T15:24:50.949Z,45.12
2018-07-27T15:25:50.960Z,44.34
2018-07-27T15:26:50.965Z,42.80
2018-07-27T15:27:50.975Z,43.68
2018-07-27T15:28:50.983Z,41.42
2018-07-27T15:29:50.991Z,41.13
2018-07-27T15:30:51.004Z,42.40
2018-07-27T15:31:51.008Z,46.59
2018-07-27T15:32:51.017Z,44.37
2018-07-27T15:33:51.025Z,45.61
2018-07-27T15:34:51.034Z,41.91
2018-07-27T15:35:51.042Z,41.01
2018-07-27T15:36:51.052Z,41.01
2018-07-27T15:37:51.059Z,41.09
2018-07-27T15:38:51.067Z,41.09
2018-07-27T15:39:51.076Z,42.06
2018-07-27T15:40:51.085Z,43.33
2018-07-27T15:41:51.092Z,43.23
2018-07-27T15:42:51.142Z,44.20
2018-07-27T15:43:51.110Z,45.18
2018-07-27T15:44:51.126Z,44.49
2018-07-27T15:45:51.125Z,44.30
2018-07-27T15:46:51.360Z,44.20
2018-07-27T15:47:51.161Z,44.40
2018-07-27T15:48:51.659Z,44.30
2018-07-27T15:49:51.157Z,44.30
2018-07-27T15:50:51.586Z,44.69
2018-07-27T15:51:51.366Z,44.30
2018-07-27T15:52:51.185Z,44.40
2018-07-27T15:53:51.191Z,44.48
2018-07-27T15:54:51.197Z,44.40
2018-07-27T15:55:51.259Z,45.18
2018-07-27T15:56:51.214Z,45.06
2018-07-27T15:57:51.221Z,44.28
2018-07-27T15:58:51.232Z,45.54
2018-07-27T15:59:53.441Z,45.45
2018-07-27T16:00:51.543Z,45.45
2018-07-27T16:01:51.251Z,45.54
2018-07-27T16:02:51.260Z,45.74
2018-07-27T16:03:51.304Z,45.35
2018-07-27T16:04:51.276Z,46.23
2018-07-27T16:05:51.283Z,46.71
2018-07-27T16:06:51.290Z,45.94
2018-07-27T16:07:51.298Z,47.61
2018-07-27T16:08:51.306Z,49.56
2018-07-27T16:09:51.312Z,49.46
2018-07-27T16:10:51.320Z,47.61
2018-07-27T16:11:51.328Z,47.80
2018-07-27T16:12:51.337Z,48.39
2018-07-27T16:13:51.357Z,47.52
2018-07-27T16:14:51.351Z,44.59
2018-07-27T16:15:53.049Z,44.38
2018-07-27T16:16:51.367Z,44.38
2018-07-27T16:17:51.373Z,45.45
2018-07-27T16:18:51.384Z,46.81
2018-07-27T16:19:51.392Z,48.85
2018-07-27T16:20:51.396Z,50.02
2018-07-27T16:21:51.743Z,45.45
2018-07-27T16:22:51.413Z,45.25
2018-07-27T16:23:51.418Z,44.84
2018-07-27T16:24:51.427Z,45.52
2018-07-27T16:25:51.459Z,44.55
2018-07-27T16:26:51.442Z,45.14
2018-07-27T16:27:51.449Z,44.94
2018-07-27T16:28:51.680Z,45.42
2018-07-27T16:29:51.464Z,45.72
2018-07-27T16:30:51.471Z,46.20
2018-07-27T16:31:51.929Z,46.20
2018-07-27T16:32:51.829Z,45.04
2018-07-27T16:33:51.493Z,45.14
2018-07-27T16:34:51.859Z,45.62
2018-07-27T16:35:51.798Z,46.61
2018-07-27T16:36:51.516Z,48.36
2018-07-27T16:37:51.523Z,49.24
2018-07-27T16:38:51.530Z,46.71
2018-07-27T16:39:51.700Z,45.94
2018-07-27T16:40:51.786Z,45.74
2018-07-27T16:41:52.006Z,44.55
2018-07-27T16:42:51.560Z,45.81
2018-07-27T16:43:51.568Z,46.30
2018-07-27T16:44:51.575Z,45.81
2018-07-27T16:45:51.582Z,46.69
2018-07-27T16:46:51.597Z,47.27
2018-07-27T16:47:51.597Z,47.76
2018-07-27T16:48:51.605Z,47.66
2018-07-27T16:49:51.612Z,47.66
2018-07-27T16:50:51.619Z,47.08
2018-07-27T16:51:51.630Z,47.76
2018-07-27T16:52:51.661Z,47.64
2018-07-27T16:53:51.640Z,47.83
2018-07-27T16:54:51.648Z,47.05
2018-07-27T16:55:51.655Z,45.79
2018-07-27T16:56:51.792Z,46.67
2018-07-27T16:57:51.669Z,46.47
2018-07-27T16:58:51.676Z,47.64
2018-07-27T16:59:51.693Z,46.86
2018-07-27T17:00:51.691Z,46.96
2018-07-27T17:01:51.709Z,46.96
2018-07-27T17:02:51.706Z,46.77
2018-07-27T17:03:51.715Z,46.86
2018-07-27T17:04:51.719Z,46.15
2018-07-27T17:05:51.726Z,46.77
2018-07-27T17:06:51.736Z,47.25
2018-07-27T17:07:51.740Z,47.42
2018-07-27T17:08:51.748Z,47.15
2018-07-27T17:09:51.753Z,46.74
2018-07-27T17:10:51.761Z,47.23
2018-07-27T17:11:51.767Z,47.83
2018-07-27T17:12:51.774Z,47.61
2018-07-27T17:13:51.781Z,48.90
2018-07-27T17:14:51.787Z,47.83
2018-07-27T17:15:51.794Z,48.30
2018-07-27T17:16:51.802Z,47.42
2018-07-27T17:17:51.807Z,48.10
2018-07-27T17:18:51.815Z,48.30
2018-07-27T17:19:51.830Z,49.07
2018-07-27T17:20:51.828Z,48.20
2018-07-27T17:21:51.835Z,48.20
2018-07-27T17:22:51.841Z,48.88
2018-07-27T17:23:51.850Z,48.00
2018-07-27T17:24:51.855Z,48.30
2018-07-27T17:25:51.881Z,48.68
2018-07-27T17:26:51.868Z,48.88
2018-07-27T17:27:51.885Z,48.66
2018-07-27T17:28:51.883Z,48.95
2018-07-27T17:29:51.900Z,48.85
2018-07-27T17:30:51.898Z,48.49
2018-07-27T17:31:51.902Z,48.95
2018-07-27T17:32:51.928Z,49.24
2018-07-27T17:33:51.917Z,48.27
2018-07-27T17:34:51.920Z,48.27
2018-07-27T17:35:51.936Z,48.37
2018-07-27T17:36:51.934Z,48.18
2018-07-27T17:37:51.939Z,48.95
2018-07-27T17:38:51.948Z,48.95
2018-07-27T17:39:51.953Z,49.05
2018-07-27T17:40:51.960Z,49.24
2018-07-27T17:41:51.967Z,49.15
2018-07-27T17:42:52.027Z,49.54
2018-07-27T17:43:51.979Z,49.92
2018-07-27T17:44:52.008Z,50.02
2018-07-27T17:45:51.991Z,50.31
2018-07-27T17:46:52.003Z,50.21
2018-07-27T17:47:52.007Z,50.31
2018-07-27T17:48:52.013Z,50.31
2018-07-27T17:49:52.018Z,49.92
2018-07-27T17:50:52.026Z,50.58
2018-07-27T17:51:52.030Z,50.58
2018-07-27T17:52:52.037Z,50.58
2018-07-27T17:53:52.043Z,50.96
2018-07-27T17:54:52.080Z,51.16
2018-07-27T17:55:52.056Z,51.65
2018-07-27T17:56:52.061Z,51.26
2018-07-27T17:57:52.067Z,51.45
2018-07-27T17:58:52.074Z,51.26
2018-07-27T17:59:52.082Z,51.45
2018-07-27T18:00:52.088Z,51.45
2018-07-27T18:01:52.094Z,51.75
2018-07-27T18:02:52.122Z,51.45
2018-07-27T18:03:52.107Z,51.84
2018-07-27T18:04:52.113Z,51.55
2018-07-27T18:05:52.118Z,51.93
2018-07-27T18:06:52.152Z,51.93
2018-07-27T18:07:52.243Z,51.84
2018-07-27T18:08:52.137Z,51.84
2018-07-27T18:09:52.144Z,52.81
2018-07-27T18:10:52.151Z,51.93
2018-07-27T18:11:52.157Z,52.33
2018-07-27T18:12:52.167Z,52.42
2018-07-27T18:13:52.171Z,51.84
2018-07-27T18:14:52.175Z,52.40
2018-07-27T18:15:52.181Z,52.30
2018-07-27T18:16:52.186Z,52.20
2018-07-27T18:17:52.197Z,52.78
2018-07-27T18:18:52.201Z,52.98
2018-07-27T18:19:52.204Z,53.08
2018-07-27T18:20:52.210Z,53.08
2018-07-27T18:21:52.216Z,53.47
2018-07-27T18:22:52.223Z,53.27
2018-07-27T18:23:52.231Z,53.17
2018-07-27T18:24:52.236Z,53.08
2018-07-27T18:25:52.267Z,53.75
2018-07-27T18:26:52.248Z,53.08
2018-07-27T18:27:52.256Z,52.78
2018-07-27T18:28:52.261Z,52.30
2018-07-27T18:29:52.266Z,52.20
2018-07-27T18:30:52.272Z,52.66
2018-07-27T18:31:52.278Z,52.59
2018-07-27T18:32:52.284Z,52.76
2018-07-27T18:33:52.290Z,52.37
2018-07-27T18:34:52.298Z,53.15
2018-07-27T18:35:52.303Z,52.56
2018-07-27T18:36:52.312Z,52.76
2018-07-27T18:37:52.313Z,53.15
2018-07-27T18:38:52.320Z,53.24
2018-07-27T18:39:52.327Z,53.05
2018-07-27T18:40:52.333Z,53.44
2018-07-27T18:41:52.337Z,53.63
2018-07-27T18:42:52.343Z,53.44